Terminal Aerodrome Forecast
Issued by NWS Riverton, WY

Home | Current Version | Previous Version | Text Only | Print | Product List | Glossary On
Versions: 1 2 3 4 5 6 7 8 9 10 11 12 13
151
FTUS45 KRIW 231731
TAFRIW
TAF
KRIW 231731Z 2318/2418 VRB06KT P6SM FEW070
     FM232100 19008KT P6SM SCT070
     FM240600 30008KT P6SM FEW070
     FM241600 28012G18KT P6SM FEW080=

USA.gov is the U.S. government's official web portal to all federal, state and local government web resources and services.